Terminal Aerodrome Forecast
Issued by NWS Bismarck, ND

Home | Current Version | Previous Version | Graphics & Text | Print | Product List | Glossary On
Versions: 1 2 3 4 5 6 7 8 9 10 11 12 13 14 15 16 17
413
FTUS43 KBIS 211824 RRA
TAFBIS
TAF
KBIS 211824Z 2118/2218 29017G25KT P6SM FEW080 FEW250
     FM212200 32020G30KT P6SM FEW090 FEW200
     FM220100 34012KT P6SM SKC
     FM220300 01005KT P6SM SKC
     FM220500 VRB03KT P6SM SKC
     FM221400 30009KT P6SM FEW080 FEW250
     FM221600 30015G23KT P6SM FEW080 FEW250=

USA.gov is the U.S. government's official web portal to all federal, state and local government web resources and services.